Time;durP1;ratioP1;P1;durP2;ratioP2;P2;SDS_P1;SDS_P2;PMS_P1;PMS_P2;Temp;Humidity;BMP_temperature;BMP_pressure;BME280_temperature;BME280_humidity;BME280_pressure;Samples;Min_cycle;Max_cycle;Signal;HPM_P1;HPM_P2
2023/11/03 00:02:20;;;;;;;6.07;0.80;;;15.40;99.90;;;;;;5034616;28;20037;-78
2023/11/03 00:04:47;;;;;;;5.75;1.00;;;15.40;99.90;;;;;;5034529;28;20377;-79
2023/11/03 00:07:14;;;;;;;5.07;1.35;;;15.40;99.90;;;;;;5034807;28;20021;-79
2023/11/03 00:09:40;;;;;;;7.75;1.40;;;15.30;99.90;;;;;;5034542;28;20021;-79
2023/11/03 00:12:07;;;;;;;6.65;1.40;;;15.30;99.90;;;;;;5034506;28;20076;-79
2023/11/03 00:14:35;;;;;;;9.52;1.27;;;15.30;99.90;;;;;;5034162;28;20017;-79
2023/11/03 00:17:01;;;;;;;14.77;1.10;;;15.40;99.90;;;;;;5034262;28;20084;-79
2023/11/03 00:19:28;;;;;;;9.45;1.58;;;15.40;99.90;;;;;;5034247;28;20421;-79
2023/11/03 00:21:54;;;;;;;7.22;1.88;;;15.40;99.90;;;;;;5034183;28;20021;-79
2023/11/03 00:24:23;;;;;;;8.23;1.33;;;15.40;99.90;;;;;;5034127;28;20040;-80
2023/11/03 00:26:54;;;;;;;4.40;0.90;;;15.40;99.90;;;;;;5033958;28;20025;-79
2023/11/03 00:29:20;;;;;;;6.85;1.05;;;15.40;99.90;;;;;;5034204;28;20124;-79
2023/11/03 00:31:46;;;;;;;7.93;1.10;;;15.50;99.90;;;;;;5033562;28;20389;-79
2023/11/03 00:34:16;;;;;;;6.32;0.82;;;15.40;99.90;;;;;;5022545;28;20054;-79
2023/11/03 00:36:44;;;;;;;9.80;1.63;;;15.40;99.90;;;;;;5014249;28;20029;-79
2023/11/03 00:39:12;;;;;;;7.70;1.50;;;15.40;99.90;;;;;;5014188;28;20109;-79
2023/11/03 00:41:41;;;;;;;4.47;0.88;;;15.40;99.90;;;;;;5014010;28;20022;-79
2023/11/03 00:44:09;;;;;;;6.55;0.98;;;15.40;99.90;;;;;;5014010;28;20088;-78
2023/11/03 00:46:35;;;;;;;6.13;1.35;;;15.40;99.90;;;;;;5014001;28;20056;-79
2023/11/03 00:49:12;;;;;;;9.65;1.70;;;15.40;99.90;;;;;;5013829;28;20040;-79
2023/11/03 00:51:38;;;;;;;4.43;1.02;;;15.40;99.90;;;;;;5013666;28;20117;-79
2023/11/03 00:54:05;;;;;;;4.50;1.00;;;15.40;99.90;;;;;;5013942;28;20026;-79
2023/11/03 00:56:32;;;;;;;4.00;0.90;;;15.30;99.90;;;;;;5013660;28;20092;-80
2023/11/03 00:58:58;;;;;;;8.70;1.55;;;15.30;99.90;;;;;;5013604;28;20022;-79
2023/11/03 01:01:24;;;;;;;8.48;1.02;;;15.40;99.90;;;;;;5013566;28;20072;-79
2023/11/03 01:03:52;;;;;;;7.97;0.75;;;15.30;99.90;;;;;;4996003;28;20065;-79
2023/11/03 01:06:19;;;;;;;3.58;0.80;;;15.30;99.90;;;;;;5013530;28;20022;-80
2023/11/03 01:08:45;;;;;;;8.02;1.05;;;15.30;99.90;;;;;;5013601;28;20390;-79
2023/11/03 01:11:12;;;;;;;6.13;1.10;;;15.30;99.90;;;;;;5013610;28;20466;-78
2023/11/03 01:13:37;;;;;;;5.53;1.08;;;15.30;99.90;;;;;;5013752;28;20040;-79
2023/11/03 01:16:07;;;;;;;4.90;0.85;;;15.20;99.90;;;;;;5013599;28;20385;-79
2023/11/03 01:18:40;;;;;;;7.38;1.30;;;15.20;99.90;;;;;;5013463;28;20033;-79
2023/11/03 01:21:15;;;;;;;4.30;1.00;;;15.20;99.90;;;;;;5013783;28;20348;-79
2023/11/03 01:23:41;;;;;;;6.45;1.00;;;15.20;99.90;;;;;;5012918;28;20036;-78
2023/11/03 01:26:11;;;;;;;5.20;1.00;;;15.20;99.90;;;;;;5013294;28;20508;-79
2023/11/03 01:28:37;;;;;;;6.15;1.52;;;15.20;99.90;;;;;;5014014;28;20033;-79
2023/11/03 01:31:04;;;;;;;7.00;1.05;;;15.20;99.90;;;;;;5013262;28;20033;-79
2023/11/03 01:33:40;;;;;;;8.60;1.20;;;15.20;99.90;;;;;;5018749;28;20405;-79
2023/11/03 01:36:06;;;;;;;5.00;0.75;;;15.10;99.90;;;;;;5032934;28;20021;-79
2023/11/03 01:38:33;;;;;;;6.65;1.38;;;15.10;99.90;;;;;;5033269;28;20053;-79
2023/11/03 01:41:02;;;;;;;5.05;0.82;;;15.20;99.90;;;;;;5033137;28;20050;-80
2023/11/03 01:43:31;;;;;;;3.88;0.77;;;15.10;99.90;;;;;;5032829;28;20064;-78
2023/11/03 01:45:58;;;;;;;7.15;1.00;;;15.10;99.90;;;;;;5032887;28;20104;-78
2023/11/03 01:48:26;;;;;;;4.75;1.00;;;15.10;99.90;;;;;;5033136;28;20389;-79
2023/11/03 01:50:54;;;;;;;2.78;0.80;;;15.10;99.90;;;;;;5032846;28;20079;-79
2023/11/03 01:53:20;;;;;;;3.53;1.10;;;15.10;99.90;;;;;;5033061;28;20033;-79
2023/11/03 01:55:47;;;;;;;7.10;0.88;;;15.00;99.90;;;;;;5032885;28;20053;-78
2023/11/03 01:58:14;;;;;;;2.65;0.73;;;15.10;99.90;;;;;;5031901;28;20033;-79
2023/11/03 02:00:40;;;;;;;4.65;1.10;;;15.00;99.90;;;;;;5012825;28;20053;-79
2023/11/03 02:03:06;;;;;;;7.65;1.05;;;15.00;99.90;;;;;;5029792;28;20033;-78
2023/11/03 02:05:32;;;;;;;4.00;0.60;;;15.00;99.90;;;;;;5031641;28;20079;-79
2023/11/03 02:07:58;;;;;;;1.85;0.57;;;15.10;99.90;;;;;;5032833;28;20021;-78
2023/11/03 02:10:24;;;;;;;2.58;0.50;;;15.00;99.90;;;;;;5032711;28;20037;-78
2023/11/03 02:12:50;;;;;;;3.58;0.65;;;15.00;99.90;;;;;;5032201;28;20030;-79
2023/11/03 02:15:16;;;;;;;3.75;0.60;;;15.00;99.90;;;;;;5032489;28;20022;-79
2023/11/03 02:17:42;;;;;;;2.05;0.57;;;14.90;99.90;;;;;;5032791;28;20033;-78
2023/11/03 02:20:09;;;;;;;4.25;0.60;;;14.90;99.90;;;;;;5032529;28;20049;-79
2023/11/03 02:22:35;;;;;;;1.80;0.50;;;14.90;99.90;;;;;;5032243;28;20131;-79
2023/11/03 02:25:01;;;;;;;4.78;0.50;;;14.90;99.90;;;;;;5032534;28;20050;-79
2023/11/03 02:27:27;;;;;;;4.18;0.40;;;14.80;99.90;;;;;;5014471;28;20080;-78
2023/11/03 02:29:54;;;;;;;1.90;0.40;;;14.80;99.90;;;;;;5032032;28;20013;-79
2023/11/03 02:32:20;;;;;;;1.63;0.43;;;14.80;99.90;;;;;;5032429;28;20043;-78
2023/11/03 02:34:45;;;;;;;0.95;0.30;;;14.70;99.90;;;;;;5016654;28;20124;-78
2023/11/03 02:37:11;;;;;;;1.55;0.43;;;14.80;99.90;;;;;;5014325;28;20474;-78
2023/11/03 02:39:40;;;;;;;1.73;0.40;;;14.70;99.90;;;;;;5016363;28;20352;-78
2023/11/03 02:42:06;;;;;;;1.95;0.40;;;14.70;99.90;;;;;;4998713;28;20441;-78
2023/11/03 02:44:32;;;;;;;0.50;0.25;;;14.60;99.90;;;;;;5015940;28;20030;-78
2023/11/03 02:46:59;;;;;;;1.20;0.30;;;14.60;99.90;;;;;;5016129;28;20029;-78
2023/11/03 02:49:25;;;;;;;1.45;0.20;;;14.60;99.90;;;;;;5016284;28;20030;-79
2023/11/03 02:51:51;;;;;;;1.45;0.40;;;14.50;99.90;;;;;;5016191;28;20021;-78
2023/11/03 02:54:17;;;;;;;3.15;0.30;;;14.50;99.90;;;;;;5016024;28;20222;-78
2023/11/03 02:56:43;;;;;;;0.80;0.20;;;14.50;99.90;;;;;;5016075;28;20386;-78
2023/11/03 02:59:09;;;;;;;0.38;0.20;;;14.50;99.90;;;;;;5016290;28;20033;-78
2023/11/03 03:01:39;;;;;;;4.13;0.38;;;14.50;99.90;;;;;;5015883;28;20374;-78
2023/11/03 03:04:05;;;;;;;0.45;0.13;;;14.50;99.90;;;;;;4998097;28;20041;-78
2023/11/03 03:06:31;;;;;;;2.97;0.30;;;14.50;99.90;;;;;;5016051;28;20030;-78
2023/11/03 03:08:57;;;;;;;1.95;0.30;;;14.50;99.90;;;;;;5015908;28;20034;-78
2023/11/03 03:11:23;;;;;;;0.65;0.10;;;14.50;99.90;;;;;;5015728;28;20576;-78
2023/11/03 03:13:49;;;;;;;1.73;0.20;;;14.50;99.90;;;;;;5015355;28;20065;-78
2023/11/03 03:16:19;;;;;;;0.68;0.30;;;14.50;99.90;;;;;;5015563;28;20045;-78
2023/11/03 03:18:46;;;;;;;1.17;0.20;;;14.50;99.90;;;;;;5015461;28;20033;-78
2023/11/03 03:21:17;;;;;;;0.43;0.10;;;14.50;99.90;;;;;;5015451;28;20389;-77
2023/11/03 03:23:43;;;;;;;0.50;0.20;;;14.50;99.90;;;;;;5015444;28;20040;-78
2023/11/03 03:26:09;;;;;;;2.17;0.20;;;14.50;99.90;;;;;;5015589;28;20022;-78
2023/11/03 03:28:35;;;;;;;2.30;0.95;;;14.50;99.90;;;;;;5015263;28;20080;-78
2023/11/03 03:31:01;;;;;;;0.40;0.10;;;14.50;99.90;;;;;;5015339;28;20029;-78
2023/11/03 03:33:27;;;;;;;0.50;0.20;;;14.50;99.90;;;;;;5015276;28;20128;-78
2023/11/03 03:35:53;;;;;;;4.63;0.25;;;14.50;99.90;;;;;;5015212;28;20105;-78
2023/11/03 03:38:19;;;;;;;3.90;0.30;;;14.50;99.90;;;;;;5015321;28;20034;-78
2023/11/03 03:40:45;;;;;;;0.75;0.20;;;14.40;99.90;;;;;;5015368;28;20382;-78
2023/11/03 03:43:11;;;;;;;0.40;0.10;;;14.50;99.90;;;;;;5015405;28;20482;-78
2023/11/03 03:45:37;;;;;;;0.28;0.03;;;14.50;99.90;;;;;;5015305;28;20058;-78
2023/11/03 03:48:03;;;;;;;0.57;0.20;;;14.50;99.90;;;;;;5014020;28;20048;-78
2023/11/03 03:50:28;;;;;;;1.20;0.35;;;14.50;99.90;;;;;;5014823;28;20018;-78
2023/11/03 03:52:54;;;;;;;0.43;0.17;;;14.50;99.90;;;;;;5014986;28;20037;-78
2023/11/03 03:55:20;;;;;;;0.63;0.10;;;14.50;99.90;;;;;;5015337;28;20029;-78
2023/11/03 03:57:48;;;;;;;0.88;0.20;;;14.50;99.90;;;;;;5014975;28;20446;-79
2023/11/03 04:00:15;;;;;;;0.95;0.10;;;14.50;99.90;;;;;;5015198;28;20029;-78
2023/11/03 04:02:41;;;;;;;4.68;0.40;;;14.50;99.90;;;;;;4997261;28;20049;-78
2023/11/03 04:05:07;;;;;;;1.00;0.30;;;14.50;99.90;;;;;;5014593;28;20026;-78
2023/11/03 04:07:36;;;;;;;1.63;0.93;;;14.50;99.90;;;;;;5014693;28;20030;-78
2023/11/03 04:10:04;;;;;;;0.55;0.40;;;14.50;99.90;;;;;;5014676;28;20474;-78
2023/11/03 04:12:30;;;;;;;0.77;0.30;;;14.50;99.90;;;;;;5014814;28;20022;-78
2023/11/03 04:14:56;;;;;;;1.75;0.10;;;14.50;99.90;;;;;;5014626;28;20034;-78
2023/11/03 04:17:22;;;;;;;0.52;0.10;;;14.50;99.90;;;;;;5014777;28;20360;-78
2023/11/03 04:19:47;;;;;;;0.40;0.20;;;14.50;99.90;;;;;;4997020;28;20057;-78
2023/11/03 04:22:14;;;;;;;0.93;0.38;;;14.50;99.90;;;;;;5014447;28;20072;-78
2023/11/03 04:24:39;;;;;;;2.85;0.20;;;14.50;99.90;;;;;;5014476;28;20502;-78
2023/11/03 04:27:05;;;;;;;0.73;0.20;;;14.50;99.90;;;;;;5014252;28;20493;-78
2023/11/03 04:29:31;;;;;;;0.57;0.20;;;14.50;99.90;;;;;;5013939;28;20029;-78
2023/11/03 04:31:58;;;;;;;4.47;0.38;;;14.50;99.90;;;;;;5014373;28;20029;-79
2023/11/03 04:34:24;;;;;;;0.13;0.10;;;14.50;99.90;;;;;;5026676;28;20393;-76
2023/11/03 04:36:50;;;;;;;2.28;0.13;;;14.50;99.90;;;;;;5034015;28;20466;-78
2023/11/03 04:39:16;;;;;;;1.95;0.20;;;14.50;99.90;;;;;;5033870;28;20037;-78
2023/11/03 04:41:42;;;;;;;1.85;0.20;;;14.50;99.90;;;;;;5033839;28;20025;-78
2023/11/03 04:44:08;;;;;;;1.67;0.20;;;14.50;99.90;;;;;;5033965;28;20091;-79
2023/11/03 04:46:33;;;;;;;0.20;0.10;;;14.50;99.90;;;;;;5033964;28;20033;-78
2023/11/03 04:48:59;;;;;;;0.15;0.10;;;14.50;99.90;;;;;;5033834;28;20022;-78
2023/11/03 04:51:25;;;;;;;1.52;0.20;;;14.50;99.90;;;;;;5033776;28;20025;-78
2023/11/03 04:53:54;;;;;;;0.82;0.17;;;14.50;99.90;;;;;;5033809;28;20029;-78
2023/11/03 04:56:20;;;;;;;0.45;0.20;;;14.50;99.90;;;;;;5033472;28;20026;-78
2023/11/03 04:58:47;;;;;;;1.00;0.40;;;14.50;99.90;;;;;;5015866;28;20363;-78
2023/11/03 05:01:13;;;;;;;1.35;0.60;;;14.60;99.90;;;;;;5033409;28;20022;-78
2023/11/03 05:03:39;;;;;;;1.75;0.68;;;14.50;99.90;;;;;;5033362;28;20120;-78
2023/11/03 05:06:05;;;;;;;1.55;0.55;;;14.50;99.90;;;;;;5033510;28;20125;-78
2023/11/03 05:08:30;;;;;;;2.05;0.50;;;14.50;99.90;;;;;;5033354;28;20390;-78
2023/11/03 05:10:56;;;;;;;0.63;0.28;;;14.60;99.90;;;;;;5015617;28;20030;-78
2023/11/03 05:13:22;;;;;;;0.50;0.30;;;14.50;99.90;;;;;;5033018;28;20101;-78
2023/11/03 05:15:48;;;;;;;1.02;0.20;;;14.60;99.90;;;;;;5033171;28;20033;-79
2023/11/03 05:18:13;;;;;;;1.23;0.30;;;14.50;99.90;;;;;;5033026;28;20021;-79
2023/11/03 05:20:41;;;;;;;2.08;0.40;;;14.60;99.90;;;;;;5033242;28;20503;-78
2023/11/03 05:23:07;;;;;;;0.70;0.30;;;14.60;99.90;;;;;;5033486;28;20534;-79
2023/11/03 05:25:32;;;;;;;1.80;0.40;;;14.60;99.90;;;;;;5033090;28;20463;-78
2023/11/03 05:27:58;;;;;;;0.50;0.22;;;14.70;99.90;;;;;;5033245;28;20033;-78
2023/11/03 05:30:25;;;;;;;2.03;0.40;;;14.70;99.90;;;;;;5033141;28;20025;-78
2023/11/03 05:32:51;;;;;;;2.47;0.32;;;14.80;99.90;;;;;;5033113;28;20025;-78
2023/11/03 05:35:17;;;;;;;0.70;0.30;;;14.80;99.90;;;;;;5033172;28;20507;-76
2023/11/03 05:37:43;;;;;;;2.10;0.40;;;14.90;99.90;;;;;;5033167;28;20029;-78
2023/11/03 05:40:11;;;;;;;5.55;0.43;;;14.90;99.90;;;;;;5032856;28;20017;-77
2023/11/03 05:42:40;;;;;;;1.95;0.40;;;15.00;99.90;;;;;;5032669;28;20033;-79
2023/11/03 05:45:06;;;;;;;2.42;0.30;;;15.00;99.90;;;;;;5032785;28;20092;-79
2023/11/03 05:47:35;;;;;;;1.67;0.30;;;15.00;99.90;;;;;;5032908;28;20057;-78
2023/11/03 05:50:03;;;;;;;2.33;0.63;;;15.00;99.90;;;;;;5032929;28;20104;-78
2023/11/03 05:52:30;;;;;;;1.80;0.40;;;15.10;99.90;;;;;;5014914;28;20076;-78
2023/11/03 05:54:59;;;;;;;7.07;0.55;;;15.10;99.90;;;;;;5032563;28;20017;-78
2023/11/03 05:57:26;;;;;;;3.00;0.57;;;15.10;99.90;;;;;;5032381;28;20026;-77
2023/11/03 05:59:51;;;;;;;4.57;0.40;;;15.10;99.90;;;;;;5032334;28;20018;-78
2023/11/03 06:02:18;;;;;;;1.75;0.32;;;15.20;99.90;;;;;;5014709;28;20025;-76
2023/11/03 06:04:44;;;;;;;2.75;0.77;;;15.20;99.90;;;;;;5032599;28;20540;-75
2023/11/03 06:07:11;;;;;;;1.88;0.40;;;15.20;99.90;;;;;;5032648;28;20373;-75
2023/11/03 06:09:39;;;;;;;2.25;0.57;;;15.20;99.90;;;;;;5032758;28;20105;-76
2023/11/03 06:12:08;;;;;;;4.15;0.73;;;15.20;99.90;;;;;;5034414;28;20101;-75
2023/11/03 06:14:33;;;;;;;1.63;0.32;;;15.20;99.90;;;;;;5036147;28;20411;-75
2023/11/03 06:16:59;;;;;;;5.40;0.85;;;15.20;99.90;;;;;;5036116;28;20059;-76
2023/11/03 06:19:30;;;;;;;6.85;0.90;;;15.20;99.90;;;;;;5036181;28;20025;-75
2023/11/03 06:21:56;;;;;;;7.05;0.80;;;15.30;99.90;;;;;;5036197;28;20359;-75
2023/11/03 06:24:22;;;;;;;3.40;0.75;;;15.30;99.90;;;;;;5036261;28;20084;-76
2023/11/03 06:26:48;;;;;;;5.50;1.00;;;15.20;99.90;;;;;;5036171;28;20068;-75
2023/11/03 06:29:17;;;;;;;5.90;0.70;;;15.30;99.90;;;;;;5036112;28;20064;-76
2023/11/03 06:31:42;;;;;;;6.32;0.77;;;15.30;99.90;;;;;;5035855;28;20057;-75
2023/11/03 06:34:08;;;;;;;4.18;0.68;;;15.20;99.90;;;;;;5035635;28;20073;-75
2023/11/03 06:36:40;;;;;;;6.93;0.95;;;15.20;99.90;;;;;;5035707;28;20037;-75
2023/11/03 06:39:06;;;;;;;4.78;0.90;;;15.30;99.90;;;;;;5036054;28;20028;-75
2023/11/03 06:41:32;;;;;;;7.32;0.95;;;15.30;99.90;;;;;;5035897;28;20022;-75
2023/11/03 06:43:57;;;;;;;6.10;0.98;;;15.40;99.90;;;;;;5035394;28;20033;-75
2023/11/03 06:46:24;;;;;;;5.78;0.93;;;15.30;99.90;;;;;;5035768;28;20029;-75
2023/11/03 06:48:50;;;;;;;5.07;0.82;;;15.30;99.90;;;;;;5035800;28;20029;-75
2023/11/03 06:51:16;;;;;;;10.65;0.80;;;15.30;99.90;;;;;;5035340;28;20022;-75
2023/11/03 06:53:43;;;;;;;6.03;1.23;;;15.30;99.90;;;;;;5035508;28;20493;-75
2023/11/03 06:56:09;;;;;;;8.32;1.58;;;15.30;99.90;;;;;;5035495;28;20020;-75
2023/11/03 06:58:34;;;;;;;5.63;0.77;;;15.40;99.90;;;;;;5035592;28;20029;-75
2023/11/03 07:01:04;;;;;;;6.57;1.23;;;15.30;99.90;;;;;;5035593;28;20545;-75
2023/11/03 07:03:31;;;;;;;9.38;1.40;;;15.40;99.90;;;;;;5035479;28;20120;-75
2023/11/03 07:05:57;;;;;;;10.80;1.13;;;15.30;99.90;;;;;;5035377;28;20117;-75
2023/11/03 07:08:23;;;;;;;10.77;2.03;;;15.40;99.90;;;;;;5034980;28;20171;-75
2023/11/03 07:10:50;;;;;;;5.22;0.77;;;15.40;99.90;;;;;;5035047;28;20032;-75
2023/11/03 07:13:16;;;;;;;13.93;1.20;;;15.40;99.90;;;;;;5035105;28;20425;-75
2023/11/03 07:15:43;;;;;;;4.45;0.95;;;15.40;99.90;;;;;;5034976;28;20053;-75
2023/11/03 07:18:09;;;;;;;7.57;1.05;;;15.50;99.90;;;;;;5035041;28;20088;-75
2023/11/03 07:20:35;;;;;;;11.27;1.30;;;15.50;99.90;;;;;;5034824;28;20033;-75
2023/11/03 07:23:01;;;;;;;9.70;1.35;;;15.50;99.90;;;;;;5034866;28;20037;-76
2023/11/03 07:25:27;;;;;;;7.05;1.30;;;15.50;99.90;;;;;;5034869;28;20384;-76
2023/11/03 07:27:53;;;;;;;9.35;1.20;;;15.50;99.90;;;;;;5034803;28;20032;-75
2023/11/03 07:30:19;;;;;;;9.77;1.73;;;15.50;99.90;;;;;;5034819;28;20075;-75
2023/11/03 07:32:46;;;;;;;10.57;1.55;;;15.50;99.90;;;;;;5035130;28;20025;-75
2023/11/03 07:35:13;;;;;;;9.02;1.50;;;15.50;99.90;;;;;;5034845;28;20100;-75
2023/11/03 07:37:39;;;;;;;7.10;1.23;;;15.50;99.90;;;;;;5034665;28;20026;-76
2023/11/03 07:40:06;;;;;;;13.25;2.28;;;15.50;99.90;;;;;;5033091;28;20029;-75
2023/11/03 07:42:32;;;;;;;7.35;1.67;;;15.50;99.90;;;;;;5034334;28;20034;-76
2023/11/03 07:44:58;;;;;;;11.75;1.30;;;15.50;99.90;;;;;;5034364;28;20373;-75
2023/11/03 07:47:24;;;;;;;14.85;1.83;;;15.50;99.90;;;;;;5032494;28;20033;-76
2023/11/03 07:49:50;;;;;;;6.60;1.30;;;15.50;99.90;;;;;;5033299;28;20021;-76
2023/11/03 07:52:16;;;;;;;10.85;1.42;;;15.50;99.90;;;;;;5031578;28;20036;-75
2023/11/03 07:54:43;;;;;;;14.30;1.23;;;15.50;99.90;;;;;;5033191;28;20035;-76
2023/11/03 07:57:12;;;;;;;15.57;1.58;;;15.40;99.90;;;;;;5032110;28;20125;-75
2023/11/03 07:59:40;;;;;;;8.55;2.00;;;15.40;99.90;;;;;;5032455;28;20022;-76
2023/11/03 08:02:06;;;;;;;8.82;1.60;;;15.40;99.90;;;;;;5031207;28;20028;-76
2023/11/03 08:04:32;;;;;;;11.13;1.55;;;15.40;99.90;;;;;;5033411;28;20032;-77
2023/11/03 08:06:59;;;;;;;10.13;1.98;;;15.40;99.90;;;;;;5033241;28;20025;-76
2023/11/03 08:09:28;;;;;;;8.80;1.40;;;15.50;99.90;;;;;;5033458;28;20029;-76
2023/11/03 08:11:55;;;;;;;9.23;1.25;;;15.50;99.90;;;;;;5033792;28;20018;-76
2023/11/03 08:14:20;;;;;;;15.35;1.77;;;15.50;99.90;;;;;;5033352;28;20101;-76
2023/11/03 08:16:47;;;;;;;12.80;2.38;;;15.40;99.90;;;;;;5032291;28;20124;-76
2023/11/03 08:19:14;;;;;;;18.35;2.40;;;15.50;99.90;;;;;;5034459;28;20025;-76
2023/11/03 08:21:42;;;;;;;10.35;1.70;;;15.50;99.90;;;;;;5034280;28;20033;-77
2023/11/03 08:24:10;;;;;;;12.38;1.88;;;15.60;99.90;;;;;;5034163;28;20034;-76
2023/11/03 08:26:36;;;;;;;8.27;1.80;;;15.50;99.50;;;;;;5034291;28;20025;-77
2023/11/03 08:29:03;;;;;;;10.60;1.23;;;15.50;99.20;;;;;;5031888;28;20026;-77
2023/11/03 08:31:30;;;;;;;16.48;1.88;;;15.50;99.50;;;;;;5033455;28;20028;-76
2023/11/03 08:33:56;;;;;;;13.85;2.30;;;15.50;99.00;;;;;;5026057;28;20054;-77
2023/11/03 08:36:24;;;;;;;12.43;2.05;;;15.50;99.60;;;;;;4996021;28;20739;-77
2023/11/03 08:38:51;;;;;;;12.52;2.33;;;15.50;99.90;;;;;;5013791;28;20037;-76
2023/11/03 08:41:20;;;;;;;15.52;2.90;;;15.60;99.50;;;;;;5013846;28;20540;-76
2023/11/03 08:43:49;;;;;;;13.07;2.20;;;15.50;98.80;;;;;;5013855;28;20359;-76
2023/11/03 08:46:15;;;;;;;16.92;2.72;;;15.50;98.80;;;;;;5014039;28;20053;-76
2023/11/03 08:48:45;;;;;;;17.98;2.50;;;15.60;98.70;;;;;;5013978;28;20080;-76
2023/11/03 08:51:15;;;;;;;14.38;1.90;;;15.50;99.10;;;;;;5014070;28;20021;-77
2023/11/03 08:53:44;;;;;;;14.13;1.83;;;15.50;98.50;;;;;;5013661;28;20030;-76
2023/11/03 08:56:14;;;;;;;15.65;1.88;;;15.60;98.10;;;;;;5013966;28;20018;-76
2023/11/03 08:58:42;;;;;;;11.65;1.95;;;15.50;98.30;;;;;;5013817;28;20073;-77
2023/11/03 09:01:11;;;;;;;20.73;2.75;;;15.50;98.50;;;;;;5013681;28;20100;-77
2023/11/03 09:03:37;;;;;;;15.80;2.17;;;15.60;98.70;;;;;;5013562;28;20080;-77
2023/11/03 09:06:05;;;;;;;9.32;1.85;;;15.60;98.40;;;;;;5013622;28;20386;-77
2023/11/03 09:08:32;;;;;;;13.77;2.30;;;15.60;97.90;;;;;;5013287;28;20422;-77
2023/11/03 09:10:59;;;;;;;11.30;2.10;;;15.60;97.20;;;;;;5013582;28;20069;-76
2023/11/03 09:13:26;;;;;;;20.08;2.67;;;15.60;97.70;;;;;;5013727;28;20084;-77
2023/11/03 09:15:52;;;;;;;14.32;2.63;;;15.60;97.60;;;;;;5013233;28;20025;-74
2023/11/03 09:18:23;;;;;;;13.90;2.45;;;15.60;97.80;;;;;;5012875;28;20100;-76
2023/11/03 09:20:49;;;;;;;11.13;1.98;;;15.60;97.70;;;;;;5013184;28;20022;-76
2023/11/03 09:23:18;;;;;;;9.82;2.63;;;15.60;98.10;;;;;;5013374;28;20045;-76
2023/11/03 09:25:44;;;;;;;12.10;1.90;;;15.60;98.00;;;;;;5013793;28;20375;-76
2023/11/03 09:28:10;;;;;;;16.83;3.13;;;15.60;97.60;;;;;;5013372;28;20025;-75
2023/11/03 09:30:36;;;;;;;18.38;2.22;;;15.70;97.70;;;;;;5012727;28;20014;-76
2023/11/03 09:33:02;;;;;;;10.82;1.90;;;15.70;97.20;;;;;;5013224;28;20029;-76
2023/11/03 09:35:29;;;;;;;15.50;3.22;;;15.70;97.20;;;;;;5032173;28;20129;-76
2023/11/03 09:37:55;;;;;;;13.93;2.72;;;15.70;96.90;;;;;;5032604;28;20439;-76
2023/11/03 09:40:22;;;;;;;18.67;3.67;;;15.70;97.20;;;;;;5032957;28;20045;-77
2023/11/03 09:42:52;;;;;;;13.43;2.22;;;15.70;97.10;;;;;;5032777;28;20386;-76
2023/11/03 09:45:23;;;;;;;12.52;2.05;;;15.80;97.00;;;;;;5031665;28;20377;-76
2023/11/03 09:47:53;;;;;;;11.48;1.92;;;15.80;96.60;;;;;;5035576;28;20021;-77
2023/11/03 09:50:21;;;;;;;15.52;2.35;;;15.70;96.50;;;;;;5036964;28;20477;-76
2023/11/03 09:52:54;;;;;;;18.77;2.42;;;15.70;96.00;;;;;;5036507;28;20061;-75
2023/11/03 09:55:23;;;;;;;16.00;2.38;;;15.70;96.00;;;;;;5036773;28;20040;-75
2023/11/03 09:57:57;;;;;;;17.33;2.15;;;15.70;95.50;;;;;;5036154;28;20101;-76
2023/11/03 10:00:27;;;;;;;15.82;2.00;;;15.70;95.90;;;;;;5036569;28;20022;-76
2023/11/03 10:02:53;;;;;;;16.23;2.40;;;15.70;96.00;;;;;;5036826;28;20112;-76
2023/11/03 10:05:19;;;;;;;16.17;2.30;;;15.70;95.80;;;;;;5036927;28;20489;-76
2023/11/03 10:08:02;;;;;;;12.00;2.80;;;15.70;95.50;;;;;;5036807;28;20104;-76
2023/11/03 10:10:34;;;;;;;13.65;2.63;;;15.70;94.80;;;;;;5036979;28;20079;-76
2023/11/03 10:13:09;;;;;;;14.05;2.65;;;15.70;95.10;;;;;;5036800;28;20029;-75
2023/11/03 10:15:39;;;;;;;17.65;2.90;;;15.70;95.30;;;;;;5036057;28;20117;-76
2023/11/03 10:18:06;;;;;;;16.23;2.63;;;15.60;95.00;;;;;;5036605;28;20080;-77
2023/11/03 10:20:32;;;;;;;20.33;3.08;;;15.60;95.90;;;;;;5036328;28;20419;-77
2023/11/03 10:22:58;;;;;;;19.75;2.85;;;15.60;96.20;;;;;;5035973;28;20087;-78
2023/11/03 10:25:26;;;;;;;25.65;4.97;;;15.50;96.70;;;;;;5036941;28;20516;-77
2023/11/03 10:27:55;;;;;;;19.65;2.90;;;15.40;97.40;;;;;;5036213;28;20053;-77
2023/11/03 10:30:29;;;;;;;25.70;3.50;;;15.30;97.90;;;;;;5018469;28;20049;-77
2023/11/03 10:32:56;;;;;;;17.70;2.60;;;15.20;98.90;;;;;;5035234;28;20029;-74
2023/11/03 10:35:22;;;;;;;18.98;2.72;;;15.10;99.80;;;;;;5032795;28;20049;-75
2023/11/03 10:37:48;;;;;;;25.42;4.30;;;15.10;99.90;;;;;;5034549;28;20026;-75
2023/11/03 10:40:14;;;;;;;15.45;3.58;;;15.10;99.90;;;;;;5035727;28;20124;-77
2023/11/03 10:42:48;;;;;;;14.23;3.33;;;15.00;99.90;;;;;;5035499;28;20485;-76
2023/11/03 10:45:18;;;;;;;21.08;3.38;;;14.90;99.90;;;;;;5035098;28;20048;-76
2023/11/03 10:48:04;;;;;;;16.58;3.13;;;14.90;99.90;;;;;;5035333;28;20103;-77
2023/11/03 10:50:35;;;;;;;20.77;3.55;;;14.80;99.90;;;;;;5035146;28;20018;-78
2023/11/03 10:53:23;;;;;;;18.10;3.33;;;14.80;99.90;;;;;;5034757;28;20029;-76
2023/11/03 10:55:59;;;;;;;16.13;3.67;;;14.80;99.90;;;;;;5017246;28;20032;-77
2023/11/03 10:58:30;;;;;;;18.95;3.40;;;14.80;99.90;;;;;;5034602;28;20013;-78
2023/11/03 11:01:06;;;;;;;19.38;3.13;;;14.90;99.90;;;;;;5034904;28;20021;-75
2023/11/03 11:04:17;;;;;;;24.27;2.78;;;14.90;99.90;;;;;;5016971;28;20099;-75
2023/11/03 11:06:50;;;;;;;18.30;2.60;;;15.00;99.90;;;;;;4998210;28;20041;-75
2023/11/03 11:09:41;;;;;;;15.18;3.13;;;15.00;99.90;;;;;;5017279;28;20025;-77
2023/11/03 11:12:07;;;;;;;16.38;2.65;;;15.10;99.90;;;;;;5035020;28;20022;-75
2023/11/03 11:14:40;;;;;;;20.20;3.22;;;15.20;99.90;;;;;;5034754;28;20017;-77
2023/11/03 11:17:36;;;;;;;15.00;2.35;;;15.20;99.90;;;;;;5034888;28;20025;-77
2023/11/03 11:20:08;;;;;;;14.57;2.78;;;15.20;99.60;;;;;;5034784;28;20112;-77
2023/11/03 11:22:36;;;;;;;15.50;2.03;;;15.20;98.90;;;;;;5035010;28;20096;-77
2023/11/03 11:25:07;;;;;;;12.52;1.80;;;15.20;97.90;;;;;;5033261;28;20033;-76
2023/11/03 11:27:38;;;;;;;9.88;1.25;;;15.10;96.50;;;;;;5032565;28;20051;-76
2023/11/03 11:30:19;;;;;;;5.00;0.70;;;14.80;94.60;;;;;;5015033;28;20064;-81
2023/11/03 11:32:52;;;;;;;6.93;1.10;;;14.50;95.00;;;;;;5015394;28;20052;-80
2023/11/03 11:35:22;;;;;;;5.45;0.82;;;14.30;95.00;;;;;;5014853;28;20133;-74
2023/11/03 11:37:51;;;;;;;5.20;1.08;;;14.10;95.40;;;;;;5013756;28;20036;-75
2023/11/03 11:40:20;;;;;;;3.78;0.68;;;13.90;96.30;;;;;;5021536;28;20052;-75
2023/11/03 11:42:49;;;;;;;6.78;1.20;;;13.80;96.30;;;;;;5013891;28;20025;-75
2023/11/03 11:45:15;;;;;;;7.32;1.10;;;13.60;97.30;;;;;;5033203;28;20029;-75
2023/11/03 11:47:48;;;;;;;7.03;1.45;;;13.50;98.20;;;;;;5034448;28;20033;-74
2023/11/03 11:50:16;;;;;;;;;;;13.50;99.50;;;;;;5034706;28;20067;-75
2023/11/03 11:52:49;;;;;;;8.02;1.58;;;13.50;99.70;;;;;;5034235;28;20362;-76
2023/11/03 11:55:19;;;;;;;9.13;1.73;;;13.50;99.90;;;;;;5034698;28;20026;-75
2023/11/03 11:57:47;;;;;;;9.75;1.38;;;13.50;99.90;;;;;;5034580;28;20086;-76
2023/11/03 12:00:17;;;;;;;7.50;1.67;;;13.40;99.90;;;;;;5034122;28;20034;-76
2023/11/03 12:02:49;;;;;;;9.98;1.30;;;13.50;99.90;;;;;;5034441;28;20051;-76
2023/11/03 12:05:17;;;;;;;11.52;1.35;;;13.50;99.90;;;;;;5034311;28;20036;-75
2023/11/03 12:07:46;;;;;;;8.70;1.42;;;13.50;99.90;;;;;;5034069;28;20374;-75
2023/11/03 12:10:17;;;;;;;4.82;1.15;;;13.50;99.90;;;;;;5032214;28;20097;-75
2023/11/03 12:12:43;;;;;;;14.43;1.73;;;13.60;99.90;;;;;;5031691;28;20123;-75
2023/11/03 12:15:09;;;;;;;7.60;1.08;;;13.70;99.90;;;;;;5031357;28;20021;-75
2023/11/03 12:17:37;;;;;;;10.10;1.23;;;13.70;99.90;;;;;;5033997;28;20032;-75
2023/11/03 12:20:08;;;;;;;9.75;1.27;;;13.80;99.90;;;;;;5034208;28;20489;-75
2023/11/03 12:22:40;;;;;;;9.48;1.65;;;13.80;99.90;;;;;;5033634;28;20473;-75
2023/11/03 12:25:06;;;;;;;6.53;1.02;;;13.90;99.90;;;;;;5034132;28;20029;-75
2023/11/03 12:27:42;;;;;;;6.80;0.77;;;14.00;99.90;;;;;;5031640;28;20029;-75
2023/11/03 12:30:08;;;;;;;9.82;1.23;;;14.10;99.90;;;;;;5031513;28;20049;-76
2023/11/03 12:32:34;;;;;;;9.32;1.20;;;14.30;99.90;;;;;;5031322;28;20030;-76
2023/11/03 12:35:10;;;;;;;6.68;1.00;;;14.50;99.90;;;;;;5033330;28;20437;-75
2023/11/03 12:37:43;;;;;;;7.50;0.73;;;14.50;99.90;;;;;;5034040;28;20104;-75
2023/11/03 12:40:22;;;;;;;5.80;1.42;;;14.60;99.90;;;;;;5034295;28;20018;-76
2023/11/03 12:42:53;;;;;;;4.32;0.55;;;14.70;99.90;;;;;;5033343;28;20378;-75
2023/11/03 12:45:19;;;;;;;3.25;0.55;;;14.80;99.90;;;;;;5033579;28;20045;-76
2023/11/03 12:47:49;;;;;;;9.60;1.30;;;14.90;99.20;;;;;;5033587;28;20490;-76